sensor_id;sensor_type;location;lat;lon;timestamp;P1;durP1;ratioP1;P2;durP2;ratioP2
52186;SDS011;38161;53.020;6.598;2023-07-31T00:00:41;70.45;;;66.65;;
52186;SDS011;38161;53.020;6.598;2023-07-31T00:03:11;100.95;;;78.30;;
52186;SDS011;38161;53.020;6.598;2023-07-31T00:05:37;72.43;;;68.10;;
52186;SDS011;38161;53.020;6.598;2023-07-31T00:08:03;64.90;;;60.67;;
52186;SDS011;38161;53.020;6.598;2023-07-31T00:10:40;70.68;;;66.85;;
52186;SDS011;38161;53.020;6.598;2023-07-31T00:13:20;68.57;;;64.78;;
52186;SDS011;38161;53.020;6.598;2023-07-31T00:15:46;74.50;;;70.57;;
52186;SDS011;38161;53.020;6.598;2023-07-31T00:18:12;71.03;;;67.20;;
52186;SDS011;38161;53.020;6.598;2023-07-31T00:20:39;73.47;;;69.57;;
52186;SDS011;38161;53.020;6.598;2023-07-31T00:23:06;75.38;;;71.45;;
52186;SDS011;38161;53.020;6.598;2023-07-31T00:25:32;69.97;;;66.22;;
52186;SDS011;38161;53.020;6.598;2023-07-31T00:28:01;73.82;;;69.68;;
52186;SDS011;38161;53.020;6.598;2023-07-31T00:30:27;72.93;;;69.07;;
52186;SDS011;38161;53.020;6.598;2023-07-31T00:32:52;71.07;;;67.18;;
52186;SDS011;38161;53.020;6.598;2023-07-31T00:35:18;75.40;;;71.38;;
52186;SDS011;38161;53.020;6.598;2023-07-31T00:37:44;74.43;;;70.43;;
52186;SDS011;38161;53.020;6.598;2023-07-31T00:40:10;73.93;;;69.72;;
52186;SDS011;38161;53.020;6.598;2023-07-31T00:42:37;77.35;;;72.63;;
52186;SDS011;38161;53.020;6.598;2023-07-31T00:45:08;79.82;;;75.50;;
52186;SDS011;38161;53.020;6.598;2023-07-31T00:47:34;71.00;;;67.15;;
52186;SDS011;38161;53.020;6.598;2023-07-31T00:50:00;74.75;;;70.78;;
52186;SDS011;38161;53.020;6.598;2023-07-31T00:52:27;80.28;;;75.88;;
52186;SDS011;38161;53.020;6.598;2023-07-31T00:54:55;79.13;;;74.65;;
52186;SDS011;38161;53.020;6.598;2023-07-31T00:59:47;66.85;;;63.30;;
52186;SDS011;38161;53.020;6.598;2023-07-31T01:02:14;73.63;;;69.47;;
52186;SDS011;38161;53.020;6.598;2023-07-31T01:04:42;75.05;;;70.60;;
52186;SDS011;38161;53.020;6.598;2023-07-31T01:07:19;76.70;;;72.57;;
52186;SDS011;38161;53.020;6.598;2023-07-31T01:12:38;75.65;;;71.65;;
52186;SDS011;38161;53.020;6.598;2023-07-31T01:15:06;76.43;;;72.13;;
52186;SDS011;38161;53.020;6.598;2023-07-31T01:17:41;79.80;;;75.68;;
52186;SDS011;38161;53.020;6.598;2023-07-31T01:26:11;78.53;;;74.25;;
52186;SDS011;38161;53.020;6.598;2023-07-31T01:31:15;76.88;;;72.90;;
52186;SDS011;38161;53.020;6.598;2023-07-31T01:33:47;74.38;;;70.45;;
52186;SDS011;38161;53.020;6.598;2023-07-31T01:36:16;78.47;;;74.32;;
52186;SDS011;38161;53.020;6.598;2023-07-31T01:38:42;74.20;;;70.38;;
52186;SDS011;38161;53.020;6.598;2023-07-31T01:41:08;83.72;;;79.50;;
52186;SDS011;38161;53.020;6.598;2023-07-31T01:43:34;77.55;;;73.55;;
52186;SDS011;38161;53.020;6.598;2023-07-31T01:46:01;77.50;;;73.47;;
52186;SDS011;38161;53.020;6.598;2023-07-31T01:48:27;79.13;;;75.10;;
52186;SDS011;38161;53.020;6.598;2023-07-31T01:50:54;78.43;;;74.13;;
52186;SDS011;38161;53.020;6.598;2023-07-31T01:53:21;81.70;;;77.53;;
52186;SDS011;38161;53.020;6.598;2023-07-31T01:55:48;79.60;;;75.55;;
52186;SDS011;38161;53.020;6.598;2023-07-31T01:58:14;82.35;;;78.13;;
52186;SDS011;38161;53.020;6.598;2023-07-31T02:00:41;82.10;;;77.95;;
52186;SDS011;38161;53.020;6.598;2023-07-31T02:03:07;80.68;;;76.45;;
52186;SDS011;38161;53.020;6.598;2023-07-31T02:08:00;65.60;;;62.28;;
52186;SDS011;38161;53.020;6.598;2023-07-31T02:10:26;79.90;;;75.80;;
52186;SDS011;38161;53.020;6.598;2023-07-31T02:12:53;80.70;;;76.68;;
52186;SDS011;38161;53.020;6.598;2023-07-31T02:15:19;81.95;;;77.65;;
52186;SDS011;38161;53.020;6.598;2023-07-31T02:17:46;78.53;;;74.35;;
52186;SDS011;38161;53.020;6.598;2023-07-31T02:20:12;75.75;;;71.97;;
52186;SDS011;38161;53.020;6.598;2023-07-31T02:22:39;83.82;;;79.55;;
52186;SDS011;38161;53.020;6.598;2023-07-31T02:25:05;82.82;;;78.55;;
52186;SDS011;38161;53.020;6.598;2023-07-31T02:27:32;77.30;;;73.40;;
52186;SDS011;38161;53.020;6.598;2023-07-31T02:29:58;85.93;;;81.53;;
52186;SDS011;38161;53.020;6.598;2023-07-31T02:32:25;85.65;;;81.40;;
52186;SDS011;38161;53.020;6.598;2023-07-31T02:34:52;87.65;;;82.97;;
52186;SDS011;38161;53.020;6.598;2023-07-31T02:37:18;81.50;;;77.35;;
52186;SDS011;38161;53.020;6.598;2023-07-31T02:39:45;83.60;;;79.30;;
52186;SDS011;38161;53.020;6.598;2023-07-31T02:42:12;85.40;;;81.03;;
52186;SDS011;38161;53.020;6.598;2023-07-31T02:44:39;82.88;;;78.55;;
52186;SDS011;38161;53.020;6.598;2023-07-31T02:47:06;84.90;;;80.55;;
52186;SDS011;38161;53.020;6.598;2023-07-31T02:49:35;83.75;;;79.53;;
52186;SDS011;38161;53.020;6.598;2023-07-31T02:52:01;84.40;;;80.07;;
52186;SDS011;38161;53.020;6.598;2023-07-31T02:54:27;79.25;;;75.22;;
52186;SDS011;38161;53.020;6.598;2023-07-31T02:56:53;87.65;;;83.30;;
52186;SDS011;38161;53.020;6.598;2023-07-31T02:59:19;80.22;;;76.25;;
52186;SDS011;38161;53.020;6.598;2023-07-31T03:01:45;81.57;;;77.45;;
52186;SDS011;38161;53.020;6.598;2023-07-31T03:04:16;94.78;;;89.82;;
52186;SDS011;38161;53.020;6.598;2023-07-31T03:06:42;83.93;;;79.55;;
52186;SDS011;38161;53.020;6.598;2023-07-31T03:09:17;90.07;;;85.43;;
52186;SDS011;38161;53.020;6.598;2023-07-31T03:11:43;87.60;;;83.22;;
52186;SDS011;38161;53.020;6.598;2023-07-31T03:14:09;88.05;;;83.53;;
52186;SDS011;38161;53.020;6.598;2023-07-31T03:16:35;85.35;;;81.03;;
52186;SDS011;38161;53.020;6.598;2023-07-31T03:19:05;89.70;;;85.15;;
52186;SDS011;38161;53.020;6.598;2023-07-31T03:21:34;88.15;;;83.63;;
52186;SDS011;38161;53.020;6.598;2023-07-31T03:24:03;89.05;;;84.60;;
52186;SDS011;38161;53.020;6.598;2023-07-31T03:26:30;84.40;;;80.18;;
52186;SDS011;38161;53.020;6.598;2023-07-31T03:29:03;91.40;;;86.68;;
52186;SDS011;38161;53.020;6.598;2023-07-31T03:31:29;87.38;;;82.95;;
52186;SDS011;38161;53.020;6.598;2023-07-31T03:33:55;87.25;;;82.70;;
52186;SDS011;38161;53.020;6.598;2023-07-31T03:36:21;91.72;;;86.93;;
52186;SDS011;38161;53.020;6.598;2023-07-31T03:38:46;96.35;;;91.40;;
52186;SDS011;38161;53.020;6.598;2023-07-31T03:41:19;92.32;;;87.47;;
52186;SDS011;38161;53.020;6.598;2023-07-31T03:43:46;99.45;;;93.78;;
52186;SDS011;38161;53.020;6.598;2023-07-31T03:46:19;95.78;;;90.63;;
52186;SDS011;38161;53.020;6.598;2023-07-31T03:48:45;99.07;;;94.10;;
52186;SDS011;38161;53.020;6.598;2023-07-31T03:51:14;92.35;;;87.70;;
52186;SDS011;38161;53.020;6.598;2023-07-31T03:53:50;90.00;;;85.40;;
52186;SDS011;38161;53.020;6.598;2023-07-31T03:56:16;93.60;;;88.30;;
52186;SDS011;38161;53.020;6.598;2023-07-31T03:58:42;88.20;;;83.75;;
52186;SDS011;38161;53.020;6.598;2023-07-31T04:01:08;92.65;;;87.88;;
52186;SDS011;38161;53.020;6.598;2023-07-31T04:03:35;91.53;;;86.93;;
52186;SDS011;38161;53.020;6.598;2023-07-31T04:08:28;74.53;;;70.78;;
52186;SDS011;38161;53.020;6.598;2023-07-31T04:10:55;84.45;;;80.10;;
52186;SDS011;38161;53.020;6.598;2023-07-31T04:13:22;85.18;;;80.78;;
52186;SDS011;38161;53.020;6.598;2023-07-31T04:18:15;73.35;;;69.55;;
52186;SDS011;38161;53.020;6.598;2023-07-31T04:20:42;82.05;;;77.88;;
52186;SDS011;38161;53.020;6.598;2023-07-31T04:23:09;85.65;;;81.32;;
52186;SDS011;38161;53.020;6.598;2023-07-31T04:25:38;93.35;;;88.55;;
52186;SDS011;38161;53.020;6.598;2023-07-31T04:28:04;87.03;;;82.53;;
52186;SDS011;38161;53.020;6.598;2023-07-31T04:30:31;89.47;;;84.80;;
52186;SDS011;38161;53.020;6.598;2023-07-31T04:32:57;93.65;;;87.75;;
52186;SDS011;38161;53.020;6.598;2023-07-31T04:35:23;85.13;;;80.78;;
52186;SDS011;38161;53.020;6.598;2023-07-31T04:37:49;96.15;;;90.93;;
52186;SDS011;38161;53.020;6.598;2023-07-31T04:40:16;90.68;;;86.13;;
52186;SDS011;38161;53.020;6.598;2023-07-31T04:45:08;83.00;;;78.75;;
52186;SDS011;38161;53.020;6.598;2023-07-31T04:47:35;91.53;;;86.93;;
52186;SDS011;38161;53.020;6.598;2023-07-31T04:50:02;91.43;;;86.80;;
52186;SDS011;38161;53.020;6.598;2023-07-31T04:52:28;90.70;;;86.20;;
52186;SDS011;38161;53.020;6.598;2023-07-31T04:54:56;94.63;;;89.55;;
52186;SDS011;38161;53.020;6.598;2023-07-31T04:57:22;90.90;;;86.28;;
52186;SDS011;38161;53.020;6.598;2023-07-31T04:59:49;90.57;;;86.07;;
52186;SDS011;38161;53.020;6.598;2023-07-31T05:02:17;94.43;;;89.47;;
52186;SDS011;38161;53.020;6.598;2023-07-31T05:04:44;97.57;;;92.65;;
52186;SDS011;38161;53.020;6.598;2023-07-31T05:07:10;92.32;;;87.38;;
52186;SDS011;38161;53.020;6.598;2023-07-31T05:09:38;90.95;;;86.10;;
52186;SDS011;38161;53.020;6.598;2023-07-31T05:12:05;97.70;;;92.65;;
52186;SDS011;38161;53.020;6.598;2023-07-31T05:14:32;97.15;;;91.97;;
52186;SDS011;38161;53.020;6.598;2023-07-31T05:16:59;101.45;;;96.15;;
52186;SDS011;38161;53.020;6.598;2023-07-31T05:19:25;94.53;;;89.72;;
52186;SDS011;38161;53.020;6.598;2023-07-31T05:21:52;102.40;;;96.70;;
52186;SDS011;38161;53.020;6.598;2023-07-31T05:24:18;101.05;;;95.60;;
52186;SDS011;38161;53.020;6.598;2023-07-31T05:26:44;103.22;;;97.80;;
52186;SDS011;38161;53.020;6.598;2023-07-31T05:31:37;81.85;;;77.38;;
52186;SDS011;38161;53.020;6.598;2023-07-31T05:34:04;99.03;;;93.82;;
52186;SDS011;38161;53.020;6.598;2023-07-31T05:36:31;100.88;;;95.70;;
52186;SDS011;38161;53.020;6.598;2023-07-31T05:38:57;107.82;;;101.85;;
52186;SDS011;38161;53.020;6.598;2023-07-31T05:41:23;110.20;;;104.25;;
52186;SDS011;38161;53.020;6.598;2023-07-31T05:46:16;98.10;;;92.63;;
52186;SDS011;38161;53.020;6.598;2023-07-31T05:48:46;96.07;;;90.88;;
52186;SDS011;38161;53.020;6.598;2023-07-31T05:51:15;110.07;;;104.07;;
52186;SDS011;38161;53.020;6.598;2023-07-31T05:53:41;113.25;;;106.95;;
52186;SDS011;38161;53.020;6.598;2023-07-31T05:56:07;108.57;;;102.63;;
52186;SDS011;38161;53.020;6.598;2023-07-31T05:58:35;113.05;;;106.28;;
52186;SDS011;38161;53.020;6.598;2023-07-31T06:01:02;117.03;;;109.78;;
52186;SDS011;38161;53.020;6.598;2023-07-31T06:03:28;121.18;;;113.45;;
52186;SDS011;38161;53.020;6.598;2023-07-31T06:05:55;124.53;;;116.38;;
52186;SDS011;38161;53.020;6.598;2023-07-31T06:08:22;128.77;;;120.85;;
52186;SDS011;38161;53.020;6.598;2023-07-31T06:10:48;125.65;;;117.75;;
52186;SDS011;38161;53.020;6.598;2023-07-31T06:13:15;130.15;;;122.40;;
52186;SDS011;38161;53.020;6.598;2023-07-31T06:15:44;135.55;;;126.30;;
52186;SDS011;38161;53.020;6.598;2023-07-31T06:18:11;139.20;;;130.32;;
52186;SDS011;38161;53.020;6.598;2023-07-31T06:20:38;126.00;;;118.22;;
52186;SDS011;38161;53.020;6.598;2023-07-31T06:23:07;131.32;;;122.38;;
52186;SDS011;38161;53.020;6.598;2023-07-31T06:25:33;140.13;;;131.57;;
52186;SDS011;38161;53.020;6.598;2023-07-31T06:27:59;121.40;;;113.88;;
52186;SDS011;38161;53.020;6.598;2023-07-31T06:30:26;136.70;;;127.97;;
52186;SDS011;38161;53.020;6.598;2023-07-31T06:32:53;129.23;;;121.25;;
52186;SDS011;38161;53.020;6.598;2023-07-31T06:35:21;142.27;;;133.90;;
52186;SDS011;38161;53.020;6.598;2023-07-31T06:37:47;128.57;;;119.80;;
52186;SDS011;38161;53.020;6.598;2023-07-31T06:40:16;142.38;;;132.90;;
52186;SDS011;38161;53.020;6.598;2023-07-31T06:45:14;121.88;;;114.03;;
52186;SDS011;38161;53.020;6.598;2023-07-31T06:48:04;134.93;;;126.20;;
52186;SDS011;38161;53.020;6.598;2023-07-31T06:50:30;143.55;;;133.73;;
52186;SDS011;38161;53.020;6.598;2023-07-31T06:53:02;149.55;;;137.45;;
52186;SDS011;38161;53.020;6.598;2023-07-31T06:55:38;149.63;;;139.95;;
52186;SDS011;38161;53.020;6.598;2023-07-31T06:58:06;151.65;;;141.73;;
52186;SDS011;38161;53.020;6.598;2023-07-31T07:00:36;160.55;;;148.75;;
52186;SDS011;38161;53.020;6.598;2023-07-31T07:03:04;156.15;;;145.45;;
52186;SDS011;38161;53.020;6.598;2023-07-31T07:05:35;163.35;;;152.88;;
52186;SDS011;38161;53.020;6.598;2023-07-31T07:08:03;143.65;;;134.48;;
52186;SDS011;38161;53.020;6.598;2023-07-31T07:10:29;151.18;;;140.00;;
52186;SDS011;38161;53.020;6.598;2023-07-31T07:12:55;161.93;;;150.02;;
52186;SDS011;38161;53.020;6.598;2023-07-31T07:15:21;149.18;;;139.70;;
52186;SDS011;38161;53.020;6.598;2023-07-31T07:17:48;153.20;;;141.68;;
52186;SDS011;38161;53.020;6.598;2023-07-31T07:20:14;157.88;;;146.32;;
52186;SDS011;38161;53.020;6.598;2023-07-31T07:22:44;150.15;;;139.00;;
52186;SDS011;38161;53.020;6.598;2023-07-31T07:25:11;154.70;;;143.95;;
52186;SDS011;38161;53.020;6.598;2023-07-31T07:27:41;152.90;;;142.40;;
52186;SDS011;38161;53.020;6.598;2023-07-31T07:30:10;147.02;;;138.02;;
52186;SDS011;38161;53.020;6.598;2023-07-31T07:32:38;153.73;;;143.73;;
52186;SDS011;38161;53.020;6.598;2023-07-31T07:35:11;155.00;;;143.90;;
52186;SDS011;38161;53.020;6.598;2023-07-31T07:40:04;132.82;;;123.38;;
52186;SDS011;38161;53.020;6.598;2023-07-31T07:42:32;139.60;;;130.90;;
52186;SDS011;38161;53.020;6.598;2023-07-31T07:44:58;147.07;;;135.77;;
52186;SDS011;38161;53.020;6.598;2023-07-31T07:47:24;153.25;;;143.75;;
52186;SDS011;38161;53.020;6.598;2023-07-31T07:49:51;139.25;;;130.57;;
52186;SDS011;38161;53.020;6.598;2023-07-31T07:52:26;148.85;;;139.68;;
52186;SDS011;38161;53.020;6.598;2023-07-31T07:55:22;149.25;;;140.27;;
52186;SDS011;38161;53.020;6.598;2023-07-31T08:06:12;122.90;;;115.95;;
52186;SDS011;38161;53.020;6.598;2023-07-31T08:09:27;122.50;;;114.97;;
52186;SDS011;38161;53.020;6.598;2023-07-31T08:11:58;118.97;;;111.07;;
52186;SDS011;38161;53.020;6.598;2023-07-31T08:14:28;136.20;;;128.07;;
52186;SDS011;38161;53.020;6.598;2023-07-31T08:16:55;127.15;;;119.55;;
52186;SDS011;38161;53.020;6.598;2023-07-31T08:19:21;141.05;;;132.52;;
52186;SDS011;38161;53.020;6.598;2023-07-31T08:21:48;152.00;;;141.85;;
52186;SDS011;38161;53.020;6.598;2023-07-31T08:24:14;145.90;;;137.27;;
52186;SDS011;38161;53.020;6.598;2023-07-31T08:26:40;143.65;;;135.30;;
52186;SDS011;38161;53.020;6.598;2023-07-31T08:29:07;153.80;;;143.80;;
52186;SDS011;38161;53.020;6.598;2023-07-31T08:31:37;154.02;;;144.85;;
52186;SDS011;38161;53.020;6.598;2023-07-31T08:34:23;150.40;;;139.80;;
52186;SDS011;38161;53.020;6.598;2023-07-31T08:36:49;154.10;;;144.13;;
52186;SDS011;38161;53.020;6.598;2023-07-31T08:39:16;154.57;;;144.75;;
52186;SDS011;38161;53.020;6.598;2023-07-31T08:41:44;170.05;;;158.13;;
52186;SDS011;38161;53.020;6.598;2023-07-31T08:44:11;170.85;;;160.45;;
52186;SDS011;38161;53.020;6.598;2023-07-31T08:46:39;168.55;;;157.35;;
52186;SDS011;38161;53.020;6.598;2023-07-31T08:49:07;181.18;;;163.50;;
52186;SDS011;38161;53.020;6.598;2023-07-31T08:51:34;177.93;;;166.23;;
52186;SDS011;38161;53.020;6.598;2023-07-31T08:54:04;167.82;;;157.43;;
52186;SDS011;38161;53.020;6.598;2023-07-31T08:56:34;181.98;;;164.50;;
52186;SDS011;38161;53.020;6.598;2023-07-31T08:59:02;178.18;;;164.95;;
52186;SDS011;38161;53.020;6.598;2023-07-31T09:01:30;188.65;;;171.52;;
52186;SDS011;38161;53.020;6.598;2023-07-31T09:04:04;197.80;;;183.25;;
52186;SDS011;38161;53.020;6.598;2023-07-31T09:06:35;245.70;;;160.60;;
52186;SDS011;38161;53.020;6.598;2023-07-31T09:09:04;177.95;;;165.23;;
52186;SDS011;38161;53.020;6.598;2023-07-31T09:11:31;202.75;;;187.55;;
52186;SDS011;38161;53.020;6.598;2023-07-31T09:13:57;210.63;;;192.27;;
52186;SDS011;38161;53.020;6.598;2023-07-31T09:16:28;215.43;;;187.40;;
52186;SDS011;38161;53.020;6.598;2023-07-31T09:18:58;210.63;;;193.18;;
52186;SDS011;38161;53.020;6.598;2023-07-31T09:21:27;214.98;;;198.57;;
52186;SDS011;38161;53.020;6.598;2023-07-31T09:23:54;225.43;;;204.35;;
52186;SDS011;38161;53.020;6.598;2023-07-31T09:26:31;216.98;;;197.43;;
52186;SDS011;38161;53.020;6.598;2023-07-31T09:29:04;224.05;;;203.55;;
52186;SDS011;38161;53.020;6.598;2023-07-31T09:34:09;231.30;;;207.50;;
52186;SDS011;38161;53.020;6.598;2023-07-31T09:36:41;245.68;;;217.43;;
52186;SDS011;38161;53.020;6.598;2023-07-31T09:39:15;237.25;;;217.23;;
52186;SDS011;38161;53.020;6.598;2023-07-31T09:41:55;226.02;;;200.68;;
52186;SDS011;38161;53.020;6.598;2023-07-31T09:44:36;223.27;;;205.07;;
52186;SDS011;38161;53.020;6.598;2023-07-31T09:47:05;222.07;;;201.10;;
52186;SDS011;38161;53.020;6.598;2023-07-31T09:49:31;221.52;;;196.50;;
52186;SDS011;38161;53.020;6.598;2023-07-31T09:51:57;236.00;;;214.13;;
52186;SDS011;38161;53.020;6.598;2023-07-31T09:54:26;232.15;;;210.30;;
52186;SDS011;38161;53.020;6.598;2023-07-31T09:56:54;243.50;;;212.55;;
52186;SDS011;38161;53.020;6.598;2023-07-31T09:59:23;223.00;;;203.48;;
52186;SDS011;38161;53.020;6.598;2023-07-31T10:01:50;256.88;;;222.75;;
52186;SDS011;38161;53.020;6.598;2023-07-31T10:04:18;233.10;;;209.98;;
52186;SDS011;38161;53.020;6.598;2023-07-31T10:06:51;230.98;;;209.32;;
52186;SDS011;38161;53.020;6.598;2023-07-31T10:09:21;249.05;;;214.23;;
52186;SDS011;38161;53.020;6.598;2023-07-31T10:12:01;231.85;;;208.77;;
52186;SDS011;38161;53.020;6.598;2023-07-31T10:14:31;220.75;;;200.43;;
52186;SDS011;38161;53.020;6.598;2023-07-31T10:17:02;254.52;;;221.50;;
52186;SDS011;38161;53.020;6.598;2023-07-31T10:19:29;266.42;;;235.48;;
52186;SDS011;38161;53.020;6.598;2023-07-31T10:21:57;307.67;;;226.43;;
52186;SDS011;38161;53.020;6.598;2023-07-31T10:24:24;277.15;;;251.05;;
52186;SDS011;38161;53.020;6.598;2023-07-31T10:26:52;317.65;;;247.30;;
52186;SDS011;38161;53.020;6.598;2023-07-31T10:29:24;309.25;;;248.18;;
52186;SDS011;38161;53.020;6.598;2023-07-31T10:31:52;359.48;;;267.73;;
52186;SDS011;38161;53.020;6.598;2023-07-31T10:34:19;334.45;;;263.90;;
52186;SDS011;38161;53.020;6.598;2023-07-31T10:36:46;376.02;;;267.60;;
52186;SDS011;38161;53.020;6.598;2023-07-31T10:42:11;286.50;;;225.73;;
52186;SDS011;38161;53.020;6.598;2023-07-31T10:44:38;434.33;;;280.00;;
52186;SDS011;38161;53.020;6.598;2023-07-31T10:47:13;603.03;;;308.73;;
52186;SDS011;38161;53.020;6.598;2023-07-31T10:49:44;540.30;;;306.33;;
52186;SDS011;38161;53.020;6.598;2023-07-31T10:52:11;516.97;;;286.23;;
52186;SDS011;38161;53.020;6.598;2023-07-31T10:54:39;556.97;;;301.33;;
52186;SDS011;38161;53.020;6.598;2023-07-31T10:57:26;451.90;;;297.20;;
52186;SDS011;38161;53.020;6.598;2023-07-31T10:59:52;479.98;;;304.85;;
52186;SDS011;38161;53.020;6.598;2023-07-31T11:02:58;399.48;;;290.65;;
52186;SDS011;38161;53.020;6.598;2023-07-31T11:05:44;474.27;;;297.70;;
52186;SDS011;38161;53.020;6.598;2023-07-31T11:08:24;448.30;;;297.33;;
52186;SDS011;38161;53.020;6.598;2023-07-31T11:13:28;901.85;;;374.40;;
52186;SDS011;38161;53.020;6.598;2023-07-31T11:16:09;795.90;;;369.33;;
52186;SDS011;38161;53.020;6.598;2023-07-31T11:18:38;899.20;;;388.58;;
52186;SDS011;38161;53.020;6.598;2023-07-31T11:21:17;772.28;;;357.13;;
52186;SDS011;38161;53.020;6.598;2023-07-31T11:23:48;609.00;;;340.67;;
52186;SDS011;38161;53.020;6.598;2023-07-31T11:26:18;609.60;;;327.20;;
52186;SDS011;38161;53.020;6.598;2023-07-31T11:28:48;828.10;;;370.88;;
52186;SDS011;38161;53.020;6.598;2023-07-31T11:31:15;701.13;;;348.13;;
52186;SDS011;38161;53.020;6.598;2023-07-31T11:33:43;736.92;;;363.27;;
52186;SDS011;38161;53.020;6.598;2023-07-31T11:36:19;668.92;;;342.75;;
52186;SDS011;38161;53.020;6.598;2023-07-31T11:38:48;558.78;;;319.55;;
52186;SDS011;38161;53.020;6.598;2023-07-31T11:41:33;681.17;;;318.48;;
52186;SDS011;38161;53.020;6.598;2023-07-31T11:44:02;669.38;;;289.10;;
52186;SDS011;38161;53.020;6.598;2023-07-31T11:46:30;568.70;;;312.35;;
52186;SDS011;38161;53.020;6.598;2023-07-31T11:49:43;514.83;;;300.65;;
52186;SDS011;38161;53.020;6.598;2023-07-31T11:52:10;479.55;;;298.25;;
52186;SDS011;38161;53.020;6.598;2023-07-31T11:54:41;470.23;;;299.38;;
52186;SDS011;38161;53.020;6.598;2023-07-31T11:57:14;570.13;;;305.88;;
52186;SDS011;38161;53.020;6.598;2023-07-31T11:59:43;619.08;;;311.30;;
52186;SDS011;38161;53.020;6.598;2023-07-31T12:02:10;727.30;;;343.95;;
52186;SDS011;38161;53.020;6.598;2023-07-31T12:04:43;729.78;;;319.83;;
52186;SDS011;38161;53.020;6.598;2023-07-31T12:07:09;560.85;;;326.02;;
52186;SDS011;38161;53.020;6.598;2023-07-31T12:09:39;797.60;;;360.45;;
52186;SDS011;38161;53.020;6.598;2023-07-31T12:12:25;630.70;;;333.65;;
52186;SDS011;38161;53.020;6.598;2023-07-31T12:14:53;665.90;;;334.30;;
52186;SDS011;38161;53.020;6.598;2023-07-31T12:17:21;605.78;;;313.67;;
52186;SDS011;38161;53.020;6.598;2023-07-31T12:19:52;725.17;;;333.17;;
52186;SDS011;38161;53.020;6.598;2023-07-31T12:22:23;642.28;;;316.17;;
52186;SDS011;38161;53.020;6.598;2023-07-31T12:25:00;674.17;;;318.75;;
52186;SDS011;38161;53.020;6.598;2023-07-31T12:27:32;593.28;;;313.52;;
52186;SDS011;38161;53.020;6.598;2023-07-31T12:30:00;456.38;;;305.23;;
52186;SDS011;38161;53.020;6.598;2023-07-31T12:32:27;560.72;;;307.55;;
52186;SDS011;38161;53.020;6.598;2023-07-31T12:35:00;558.63;;;304.67;;
52186;SDS011;38161;53.020;6.598;2023-07-31T12:37:36;543.80;;;300.00;;
52186;SDS011;38161;53.020;6.598;2023-07-31T12:40:06;684.05;;;292.90;;
52186;SDS011;38161;53.020;6.598;2023-07-31T12:42:34;549.55;;;288.50;;
52186;SDS011;38161;53.020;6.598;2023-07-31T12:45:03;436.13;;;256.05;;
52186;SDS011;38161;53.020;6.598;2023-07-31T12:47:30;518.60;;;299.05;;
52186;SDS011;38161;53.020;6.598;2023-07-31T12:49:56;397.20;;;283.95;;
52186;SDS011;38161;53.020;6.598;2023-07-31T12:52:22;443.38;;;273.20;;
52186;SDS011;38161;53.020;6.598;2023-07-31T12:54:50;559.72;;;290.25;;
52186;SDS011;38161;53.020;6.598;2023-07-31T12:57:17;396.10;;;270.77;;
52186;SDS011;38161;53.020;6.598;2023-07-31T12:59:45;557.92;;;291.13;;
52186;SDS011;38161;53.020;6.598;2023-07-31T13:02:12;520.65;;;289.80;;
52186;SDS011;38161;53.020;6.598;2023-07-31T13:04:43;489.98;;;295.75;;
52186;SDS011;38161;53.020;6.598;2023-07-31T13:07:10;517.30;;;279.73;;
52186;SDS011;38161;53.020;6.598;2023-07-31T13:09:37;442.23;;;264.52;;
52186;SDS011;38161;53.020;6.598;2023-07-31T13:12:04;411.13;;;267.83;;
52186;SDS011;38161;53.020;6.598;2023-07-31T13:14:32;488.02;;;280.25;;
52186;SDS011;38161;53.020;6.598;2023-07-31T13:17:04;531.63;;;289.05;;
52186;SDS011;38161;53.020;6.598;2023-07-31T13:19:33;464.80;;;293.52;;
52186;SDS011;38161;53.020;6.598;2023-07-31T13:22:02;520.28;;;280.42;;
52186;SDS011;38161;53.020;6.598;2023-07-31T13:24:29;452.13;;;271.67;;
52186;SDS011;38161;53.020;6.598;2023-07-31T13:26:56;466.33;;;272.98;;
52186;SDS011;38161;53.020;6.598;2023-07-31T13:29:22;413.02;;;268.73;;
52186;SDS011;38161;53.020;6.598;2023-07-31T13:31:56;498.83;;;291.15;;
52186;SDS011;38161;53.020;6.598;2023-07-31T13:34:24;491.30;;;291.13;;
52186;SDS011;38161;53.020;6.598;2023-07-31T13:36:54;498.42;;;292.92;;
52186;SDS011;38161;53.020;6.598;2023-07-31T13:39:25;538.38;;;306.48;;
52186;SDS011;38161;53.020;6.598;2023-07-31T13:41:54;503.50;;;287.15;;
52186;SDS011;38161;53.020;6.598;2023-07-31T13:44:21;590.30;;;285.45;;
52186;SDS011;38161;53.020;6.598;2023-07-31T13:46:51;641.50;;;311.52;;
52186;SDS011;38161;53.020;6.598;2023-07-31T13:49:17;512.97;;;299.73;;
52186;SDS011;38161;53.020;6.598;2023-07-31T13:54:09;439.90;;;264.42;;
52186;SDS011;38161;53.020;6.598;2023-07-31T13:56:41;459.02;;;283.85;;
52186;SDS011;38161;53.020;6.598;2023-07-31T13:59:08;681.15;;;323.40;;
52186;SDS011;38161;53.020;6.598;2023-07-31T14:01:34;511.83;;;301.52;;
52186;SDS011;38161;53.020;6.598;2023-07-31T14:04:00;477.90;;;299.08;;
52186;SDS011;38161;53.020;6.598;2023-07-31T14:08:52;371.40;;;274.02;;
52186;SDS011;38161;53.020;6.598;2023-07-31T14:11:18;512.22;;;281.92;;
52186;SDS011;38161;53.020;6.598;2023-07-31T14:13:44;546.88;;;286.17;;
52186;SDS011;38161;53.020;6.598;2023-07-31T14:16:10;326.42;;;252.43;;
52186;SDS011;38161;53.020;6.598;2023-07-31T14:18:36;491.77;;;287.95;;
52186;SDS011;38161;53.020;6.598;2023-07-31T14:23:29;460.38;;;253.13;;
52186;SDS011;38161;53.020;6.598;2023-07-31T14:25:55;526.00;;;280.88;;
52186;SDS011;38161;53.020;6.598;2023-07-31T14:28:21;469.98;;;281.05;;
52186;SDS011;38161;53.020;6.598;2023-07-31T14:30:46;480.92;;;285.95;;
52186;SDS011;38161;53.020;6.598;2023-07-31T14:33:12;447.90;;;271.77;;
52186;SDS011;38161;53.020;6.598;2023-07-31T14:35:38;431.85;;;271.20;;
52186;SDS011;38161;53.020;6.598;2023-07-31T14:38:04;447.73;;;263.20;;
52186;SDS011;38161;53.020;6.598;2023-07-31T14:40:30;508.83;;;242.02;;
52186;SDS011;38161;53.020;6.598;2023-07-31T14:42:56;390.77;;;255.90;;
52186;SDS011;38161;53.020;6.598;2023-07-31T14:45:22;330.33;;;242.32;;
52186;SDS011;38161;53.020;6.598;2023-07-31T14:47:48;401.55;;;255.75;;
52186;SDS011;38161;53.020;6.598;2023-07-31T14:50:14;338.83;;;240.07;;
52186;SDS011;38161;53.020;6.598;2023-07-31T14:52:40;392.73;;;249.00;;
52186;SDS011;38161;53.020;6.598;2023-07-31T14:55:06;296.58;;;235.60;;
52186;SDS011;38161;53.020;6.598;2023-07-31T14:57:33;349.42;;;244.80;;
52186;SDS011;38161;53.020;6.598;2023-07-31T14:59:59;310.25;;;235.45;;
52186;SDS011;38161;53.020;6.598;2023-07-31T15:02:25;398.70;;;265.63;;
52186;SDS011;38161;53.020;6.598;2023-07-31T15:04:52;424.45;;;246.50;;
52186;SDS011;38161;53.020;6.598;2023-07-31T15:07:18;342.23;;;242.93;;
52186;SDS011;38161;53.020;6.598;2023-07-31T15:09:44;266.17;;;217.93;;
52186;SDS011;38161;53.020;6.598;2023-07-31T15:12:10;325.98;;;225.77;;